Huvudsida
METAR-TAF:

METAR-TAF

Flygplatser :

Franjo Tuđmans flygplats

Zagreb, Kroatien

latitud: 45-44N, longitud: 016-04E, höjd: 106 m

Aktuellt väderrapport

Denna rapport gjordes för 35 minuter sedan, klockan 21:00 UTC
Stilla vind
Temperatur 21°C
Fuktighet 73%
Tryck 1017 hPa
Sikt 10 km eller mer
Inga moln under 1 500 m eller inga cumulonimbus

METAR: LDZA 192100Z 00000KT CAVOK 21/16 Q1017 NOSIG

Tid: 23:35 (21:35 UTC)

Väderprognos

Denna rapport gjordes för 4 timmar och 10 minuter sedan, klockan 17:25 UTC
Prognos gäller från 19 kl. 18 UTC till 20 kl. 18 UTC
Vind 5 kt från ost/nordost
Sikt 10 km eller mer
Inga moln under 1 500 m eller inga cumulonimbus

TAF: LDZA 191725Z 1918/2018 07005KT CAVOK TX33/2014Z TN17/2004Z

Aktuella väderrapporter och prognoser från 4000 flygplatser (METAR- och TAF-rapporter).

De tillgängliga stationerna syns som gula och röda prickar på kartan.

För musen över prickarna för att se namnen på stationerna.

Klicka sedan för att få väderrapporter och prognoser.

För att ändra kartan: Klicka på de gröna knapparna med ett svart kors på för att zooma in; den gröna knappen med ett streck på för att zooma ut; eller på de gröna pilarna för angränsande kartor.


METAR-TAF: